Time;durP1;ratioP1;P1;durP2;ratioP2;P2;SDS_P1;SDS_P2;PMS_P1;PMS_P2;Temp;Humidity;BMP_temperature;BMP_pressure;BME280_temperature;BME280_humidity;BME280_pressure;Samples;Min_cycle;Max_cycle;Signal;HPM_P1;HPM_P2
2023/06/30 00:02:06;;;;;;;11.13;8.77;;;13.20;99.90;;;;;;5051601;28;20025;-82
2023/06/30 00:04:32;;;;;;;8.82;7.93;;;13.10;99.90;;;;;;5051583;28;20133;-82
2023/06/30 00:06:59;;;;;;;12.48;8.40;;;13.10;99.90;;;;;;5051512;28;20042;-81
2023/06/30 00:09:25;;;;;;;9.07;8.00;;;13.10;99.90;;;;;;5050269;28;20036;-81
2023/06/30 00:11:53;;;;;;;9.43;8.32;;;13.10;99.90;;;;;;5051467;28;20025;-81
2023/06/30 00:14:20;;;;;;;11.85;9.20;;;13.00;99.90;;;;;;5049614;28;20021;-81
2023/06/30 00:16:47;;;;;;;8.13;7.43;;;13.10;99.90;;;;;;5050065;28;20029;-81
2023/06/30 00:19:13;;;;;;;9.38;7.90;;;13.10;99.90;;;;;;5050308;28;20025;-82
2023/06/30 00:21:42;;;;;;;8.38;7.38;;;13.10;99.90;;;;;;5049932;28;20466;-82
2023/06/30 00:24:12;;;;;;;9.55;7.32;;;13.10;99.90;;;;;;5051224;28;20036;-80
2023/06/30 00:26:39;;;;;;;8.55;7.75;;;13.10;99.90;;;;;;5051304;28;20105;-81
2023/06/30 00:29:05;;;;;;;10.10;7.53;;;13.20;99.90;;;;;;5051207;28;20025;-81
2023/06/30 00:31:30;;;;;;;10.35;9.02;;;13.20;99.90;;;;;;5051218;28;20025;-81
2023/06/30 00:33:57;;;;;;;9.48;8.48;;;13.20;99.90;;;;;;5049827;28;20073;-81
2023/06/30 00:36:23;;;;;;;11.00;8.18;;;13.10;99.90;;;;;;5049848;28;20025;-81
2023/06/30 00:38:49;;;;;;;12.55;8.70;;;13.10;99.90;;;;;;5051027;28;20029;-81
2023/06/30 00:41:15;;;;;;;9.25;8.30;;;13.10;99.90;;;;;;5050920;28;20049;-81
2023/06/30 00:43:41;;;;;;;13.48;9.43;;;13.10;99.90;;;;;;5049865;28;20036;-82
2023/06/30 00:46:12;;;;;;;12.10;8.77;;;13.10;99.90;;;;;;5050830;28;20033;-81
2023/06/30 00:48:38;;;;;;;12.52;9.68;;;13.10;99.90;;;;;;5049653;28;20024;-82
2023/06/30 00:51:04;;;;;;;12.43;11.00;;;13.10;99.90;;;;;;5050849;28;20045;-81
2023/06/30 00:53:30;;;;;;;12.10;9.57;;;13.20;99.90;;;;;;5050873;28;20389;-82
2023/06/30 00:55:56;;;;;;;12.48;9.88;;;13.20;99.90;;;;;;5050669;28;20153;-82
2023/06/30 00:58:22;;;;;;;14.32;9.23;;;13.20;99.90;;;;;;5049490;28;20025;-81
2023/06/30 01:00:49;;;;;;;10.07;9.05;;;13.20;99.90;;;;;;5050768;28;20027;-80
2023/06/30 01:03:37;;;;;;;14.27;10.50;;;13.20;99.90;;;;;;5050696;28;20036;-81
2023/06/30 01:06:16;;;;;;;10.02;9.02;;;13.10;99.90;;;;;;5053023;28;20049;-81
2023/06/30 01:08:54;;;;;;;11.35;8.82;;;13.20;99.90;;;;;;5049476;28;20044;-81
2023/06/30 01:11:20;;;;;;;12.05;9.73;;;13.20;99.90;;;;;;5049427;28;20021;-81
2023/06/30 01:13:47;;;;;;;12.70;9.48;;;13.20;99.90;;;;;;5050624;28;20490;-82
2023/06/30 01:16:15;;;;;;;12.00;9.43;;;13.20;99.90;;;;;;5049192;28;20053;-82
2023/06/30 01:18:44;;;;;;;12.52;10.25;;;13.20;99.90;;;;;;5049316;28;20386;-82
2023/06/30 01:21:15;;;;;;;10.20;9.18;;;13.10;99.90;;;;;;5049182;28;20074;-82
2023/06/30 01:23:54;;;;;;;12.60;10.48;;;13.20;99.90;;;;;;5029391;28;20044;-81
2023/06/30 01:26:21;;;;;;;9.73;8.38;;;13.20;99.90;;;;;;5032272;28;20116;-80
2023/06/30 01:28:47;;;;;;;12.05;9.45;;;13.20;99.90;;;;;;5049376;28;20474;-82
2023/06/30 01:31:13;;;;;;;12.82;10.05;;;13.30;99.90;;;;;;5034081;28;20066;-81
2023/06/30 01:33:39;;;;;;;11.63;9.77;;;13.30;99.90;;;;;;5034064;28;20033;-80
2023/06/30 01:36:06;;;;;;;10.82;9.35;;;13.20;99.90;;;;;;5032102;28;20420;-82
2023/06/30 01:38:32;;;;;;;13.38;9.80;;;13.20;99.90;;;;;;5032788;28;20029;-80
2023/06/30 01:41:00;;;;;;;10.63;9.25;;;13.20;99.90;;;;;;5033702;28;20407;-80
2023/06/30 01:43:26;;;;;;;12.43;9.80;;;13.20;99.90;;;;;;5033899;28;20538;-82
2023/06/30 01:45:53;;;;;;;13.45;9.75;;;13.20;99.90;;;;;;5049042;28;20029;-81
2023/06/30 01:48:19;;;;;;;12.35;10.23;;;13.30;99.90;;;;;;5033862;28;20075;-82
2023/06/30 01:50:45;;;;;;;13.25;10.18;;;13.30;99.90;;;;;;5033748;28;20030;-82
2023/06/30 01:53:11;;;;;;;11.35;9.57;;;13.30;99.90;;;;;;5049235;28;20489;-80
2023/06/30 01:55:38;;;;;;;11.25;9.05;;;13.30;99.90;;;;;;5048908;28;20029;-80
2023/06/30 01:58:04;;;;;;;10.88;9.45;;;13.40;99.90;;;;;;5049053;28;20026;-81
2023/06/30 02:00:30;;;;;;;10.32;9.02;;;13.40;99.90;;;;;;5033628;28;20502;-80
2023/06/30 02:02:56;;;;;;;11.82;10.15;;;13.40;99.90;;;;;;5033553;28;20029;-81
2023/06/30 02:05:21;;;;;;;13.88;10.20;;;13.40;99.90;;;;;;5033449;28;20037;-80
2023/06/30 02:07:47;;;;;;;14.45;10.35;;;13.50;99.90;;;;;;5033554;28;20386;-82
2023/06/30 02:10:12;;;;;;;11.55;10.20;;;13.50;99.90;;;;;;5048947;28;20032;-81
2023/06/30 02:12:38;;;;;;;11.82;9.57;;;13.50;99.90;;;;;;5048794;28;20113;-81
2023/06/30 02:15:04;;;;;;;11.85;9.98;;;13.50;99.90;;;;;;5048762;28;20395;-80
2023/06/30 02:17:32;;;;;;;11.55;9.95;;;13.50;99.90;;;;;;5033759;28;20021;-82
2023/06/30 02:20:03;;;;;;;11.32;9.07;;;13.40;99.90;;;;;;5053146;28;20021;-81
2023/06/30 02:22:29;;;;;;;12.13;9.73;;;13.50;99.90;;;;;;5051984;28;20048;-81
2023/06/30 02:24:56;;;;;;;11.30;10.18;;;13.50;99.90;;;;;;5053076;28;20071;-82
2023/06/30 02:27:22;;;;;;;17.42;10.27;;;13.40;99.90;;;;;;5053379;28;20531;-80
2023/06/30 02:29:47;;;;;;;12.52;9.93;;;13.40;99.90;;;;;;5051928;28;20577;-82
2023/06/30 02:32:13;;;;;;;13.07;9.15;;;13.40;99.90;;;;;;5051780;28;20082;-82
2023/06/30 02:34:38;;;;;;;11.55;8.90;;;13.40;99.90;;;;;;5051825;28;20474;-81
2023/06/30 02:37:04;;;;;;;16.63;9.73;;;13.40;99.90;;;;;;5051127;28;20355;-82
2023/06/30 02:39:30;;;;;;;10.20;8.85;;;13.40;99.90;;;;;;5051692;28;20065;-80
2023/06/30 02:41:55;;;;;;;16.38;10.02;;;13.40;99.90;;;;;;5051717;28;20063;-81
2023/06/30 02:44:21;;;;;;;11.88;10.25;;;13.30;99.90;;;;;;5052787;28;20025;-82
2023/06/30 02:46:47;;;;;;;14.23;10.45;;;13.30;99.90;;;;;;5051626;28;20025;-81
2023/06/30 02:49:12;;;;;;;11.70;10.00;;;13.30;99.90;;;;;;5051524;28;20021;-80
2023/06/30 02:51:38;;;;;;;11.13;10.00;;;13.30;99.90;;;;;;5051611;28;20017;-82
2023/06/30 02:54:03;;;;;;;11.27;9.68;;;13.20;99.90;;;;;;5051450;28;20495;-80
2023/06/30 02:56:29;;;;;;;12.07;9.93;;;13.20;99.90;;;;;;5051405;28;20108;-80
2023/06/30 02:58:55;;;;;;;13.65;10.38;;;13.30;99.90;;;;;;5052653;28;20025;-80
2023/06/30 03:01:21;;;;;;;14.50;10.27;;;13.30;99.90;;;;;;5051391;28;20534;-80
2023/06/30 03:03:50;;;;;;;18.13;10.82;;;13.30;99.90;;;;;;5051341;28;20093;-80
2023/06/30 03:06:15;;;;;;;12.57;9.43;;;13.30;99.90;;;;;;5052520;28;20116;-80
2023/06/30 03:08:41;;;;;;;14.27;9.77;;;13.30;99.90;;;;;;5051341;28;20051;-80
2023/06/30 03:11:07;;;;;;;11.82;8.98;;;13.40;99.90;;;;;;5052419;28;20417;-82
2023/06/30 03:13:33;;;;;;;13.98;8.88;;;13.30;99.90;;;;;;5051164;28;20032;-82
2023/06/30 03:15:58;;;;;;;11.55;9.35;;;13.40;99.90;;;;;;5051028;28;20028;-80
2023/06/30 03:18:24;;;;;;;13.13;9.75;;;13.30;99.90;;;;;;5051036;28;20021;-81
2023/06/30 03:20:50;;;;;;;10.98;8.43;;;13.30;99.90;;;;;;5051060;28;20112;-80
2023/06/30 03:23:17;;;;;;;16.42;14.43;;;13.40;99.90;;;;;;5050946;28;20120;-80
2023/06/30 03:25:43;;;;;;;12.07;9.73;;;13.30;99.90;;;;;;5052149;28;20576;-82
2023/06/30 03:28:09;;;;;;;11.70;9.52;;;13.30;99.90;;;;;;5052180;28;20040;-80
2023/06/30 03:30:34;;;;;;;12.00;9.70;;;13.30;99.90;;;;;;5050842;28;20107;-81
2023/06/30 03:33:00;;;;;;;10.68;8.88;;;13.30;99.90;;;;;;5050878;28;20027;-82
2023/06/30 03:35:25;;;;;;;12.65;9.70;;;13.30;99.90;;;;;;5052159;28;20490;-80
2023/06/30 03:37:51;;;;;;;13.35;8.98;;;13.30;99.90;;;;;;5050686;28;20021;-81
2023/06/30 03:40:16;;;;;;;12.32;8.93;;;13.30;99.90;;;;;;5051985;28;20084;-80
2023/06/30 03:42:42;;;;;;;15.82;8.98;;;13.30;99.90;;;;;;5052091;28;20022;-81
2023/06/30 03:45:08;;;;;;;14.35;9.55;;;13.30;99.90;;;;;;5051841;28;20082;-82
2023/06/30 03:47:34;;;;;;;11.38;9.15;;;13.30;99.90;;;;;;5050507;28;20549;-81
2023/06/30 03:49:59;;;;;;;10.43;9.30;;;13.30;99.90;;;;;;5051027;28;20064;-80
2023/06/30 03:52:25;;;;;;;14.10;10.30;;;13.40;99.90;;;;;;5050455;28;20029;-81
2023/06/30 03:54:52;;;;;;;10.55;8.75;;;13.40;99.90;;;;;;5051818;28;20462;-82
2023/06/30 03:57:17;;;;;;;11.55;8.80;;;13.40;99.90;;;;;;5051756;28;20032;-82
2023/06/30 03:59:43;;;;;;;13.88;9.50;;;13.50;99.90;;;;;;5051951;28;20021;-81
2023/06/30 04:02:08;;;;;;;14.38;9.30;;;13.50;99.90;;;;;;5051605;28;20078;-82
2023/06/30 04:04:34;;;;;;;10.30;8.15;;;13.60;99.90;;;;;;5050299;28;20037;-83
2023/06/30 04:07:00;;;;;;;10.45;9.35;;;13.70;99.90;;;;;;5050252;28;20017;-82
2023/06/30 04:09:25;;;;;;;11.90;8.20;;;13.90;99.90;;;;;;5051559;28;20029;-82
2023/06/30 04:11:51;;;;;;;10.85;8.77;;;14.10;99.90;;;;;;5051677;28;20059;-83
2023/06/30 04:14:17;;;;;;;11.27;8.40;;;14.40;99.90;;;;;;5051464;28;20026;-80
2023/06/30 04:16:43;;;;;;;13.95;10.13;;;14.60;99.90;;;;;;5050130;28;20040;-81
2023/06/30 04:19:09;;;;;;;13.68;9.20;;;14.90;99.90;;;;;;5051426;28;20092;-81
2023/06/30 04:21:35;;;;;;;10.18;9.00;;;15.20;99.90;;;;;;5049979;28;20108;-83
2023/06/30 04:24:00;;;;;;;10.57;8.30;;;15.40;99.90;;;;;;5050147;28;20021;-83
2023/06/30 04:26:26;;;;;;;11.77;8.63;;;15.50;99.90;;;;;;5049977;28;20526;-83
2023/06/30 04:28:51;;;;;;;11.45;9.07;;;15.70;99.90;;;;;;5049987;28;20013;-82
2023/06/30 04:31:17;;;;;;;11.77;9.32;;;15.80;99.90;;;;;;5049804;28;20124;-82
2023/06/30 04:33:43;;;;;;;10.73;7.80;;;16.10;99.90;;;;;;5051153;28;20029;-82
2023/06/30 04:36:08;;;;;;;9.35;7.60;;;16.30;99.90;;;;;;5051006;28;20043;-81
2023/06/30 04:38:34;;;;;;;12.20;8.55;;;16.40;99.90;;;;;;5050201;28;20033;-82
2023/06/30 04:41:00;;;;;;;11.43;8.00;;;16.40;99.90;;;;;;5049617;28;20136;-83
2023/06/30 04:43:25;;;;;;;10.05;7.90;;;16.60;99.90;;;;;;5049722;28;20040;-81
2023/06/30 04:45:51;;;;;;;10.82;8.27;;;16.70;99.90;;;;;;5049525;28;20033;-81
2023/06/30 04:48:18;;;;;;;8.90;7.72;;;16.90;99.90;;;;;;5033429;28;20045;-82
2023/06/30 04:50:43;;;;;;;15.82;8.60;;;17.20;99.90;;;;;;5049694;28;20531;-81
2023/06/30 04:53:09;;;;;;;11.05;8.77;;;17.40;99.90;;;;;;5049685;28;20359;-82
2023/06/30 04:55:34;;;;;;;12.55;9.07;;;17.60;99.90;;;;;;5049489;28;20066;-81
2023/06/30 04:58:00;;;;;;;11.35;9.00;;;17.80;99.90;;;;;;5050845;28;20021;-81
2023/06/30 05:00:27;;;;;;;12.25;10.43;;;18.00;99.90;;;;;;5050852;28;20029;-83
2023/06/30 05:02:53;;;;;;;10.90;9.20;;;18.10;99.90;;;;;;5049500;28;20060;-83
2023/06/30 05:05:18;;;;;;;12.82;11.20;;;18.20;99.90;;;;;;5049512;28;20066;-83
2023/06/30 05:07:45;;;;;;;18.10;12.02;;;18.40;99.90;;;;;;5050722;28;20021;-82
2023/06/30 05:10:11;;;;;;;24.27;13.10;;;18.40;99.90;;;;;;5050684;28;20021;-82
2023/06/30 05:12:37;;;;;;;22.65;13.35;;;18.50;99.90;;;;;;5049328;28;20181;-82
2023/06/30 05:15:03;;;;;;;22.33;13.75;;;18.50;99.90;;;;;;5050570;28;20100;-82
2023/06/30 05:17:29;;;;;;;25.33;15.13;;;18.50;99.90;;;;;;5049247;28;20017;-82
2023/06/30 05:19:54;;;;;;;24.58;14.48;;;18.60;99.90;;;;;;5050383;28;20032;-82
2023/06/30 05:22:20;;;;;;;23.63;13.93;;;18.70;99.90;;;;;;5049223;28;20053;-81
2023/06/30 05:24:46;;;;;;;18.42;13.82;;;18.70;99.90;;;;;;5049754;28;20060;-82
2023/06/30 05:27:11;;;;;;;18.15;13.05;;;18.80;99.90;;;;;;5050431;28;20094;-82
2023/06/30 05:29:37;;;;;;;21.75;13.63;;;18.90;99.90;;;;;;5050526;28;20093;-82
2023/06/30 05:32:03;;;;;;;19.05;12.88;;;19.00;99.90;;;;;;5050348;28;20391;-82
2023/06/30 05:34:28;;;;;;;21.83;12.85;;;19.00;99.90;;;;;;5050344;28;20033;-82
2023/06/30 05:36:55;;;;;;;23.45;13.32;;;19.10;99.90;;;;;;5049496;28;20028;-82
2023/06/30 05:39:22;;;;;;;17.52;12.75;;;19.20;99.90;;;;;;5050307;28;20025;-82
2023/06/30 05:41:47;;;;;;;20.05;13.77;;;19.30;99.90;;;;;;5050092;28;20045;-82
2023/06/30 05:44:13;;;;;;;22.63;12.50;;;19.40;99.90;;;;;;5048892;28;20502;-82
2023/06/30 05:46:39;;;;;;;15.80;11.65;;;19.50;99.90;;;;;;5048853;28;20052;-82
2023/06/30 05:49:05;;;;;;;20.95;12.10;;;19.70;99.90;;;;;;5050710;28;20390;-82
2023/06/30 05:51:33;;;;;;;18.02;11.85;;;19.80;99.10;;;;;;5050169;28;20415;-82
2023/06/30 05:53:59;;;;;;;18.02;12.50;;;19.90;97.20;;;;;;5048850;28;20037;-82
2023/06/30 05:56:24;;;;;;;16.73;9.73;;;20.00;96.20;;;;;;5048710;28;20029;-82
2023/06/30 05:58:50;;;;;;;11.35;8.90;;;20.20;95.00;;;;;;5050057;28;20039;-82
2023/06/30 06:01:16;;;;;;;11.30;8.02;;;20.30;91.00;;;;;;5050260;28;20427;-82
2023/06/30 06:03:42;;;;;;;13.95;8.93;;;20.40;85.40;;;;;;5049903;28;20021;-82
2023/06/30 06:06:07;;;;;;;12.85;9.30;;;20.50;84.80;;;;;;5049826;28;20037;-82
2023/06/30 06:08:33;;;;;;;13.45;8.38;;;20.60;80.50;;;;;;5049978;28;20051;-81
2023/06/30 06:10:59;;;;;;;11.38;8.02;;;20.70;82.00;;;;;;5049817;28;20022;-82
2023/06/30 06:13:32;;;;;;;10.00;8.55;;;20.80;81.50;;;;;;5051710;28;20073;-81
2023/06/30 06:15:58;;;;;;;10.13;7.63;;;21.00;81.50;;;;;;5053263;28;20473;-82
2023/06/30 06:18:23;;;;;;;11.90;7.88;;;21.10;81.20;;;;;;5053309;28;20065;-82
2023/06/30 06:20:49;;;;;;;13.88;8.02;;;21.10;78.50;;;;;;5053399;28;20043;-82
2023/06/30 06:23:15;;;;;;;9.65;7.15;;;21.20;77.50;;;;;;5053258;28;20025;-82
2023/06/30 06:25:40;;;;;;;11.73;6.20;;;21.30;75.80;;;;;;5053056;28;20037;-82
2023/06/30 06:28:06;;;;;;;7.95;7.13;;;21.30;74.10;;;;;;5051940;28;20478;-82
2023/06/30 06:30:32;;;;;;;8.95;6.88;;;21.50;75.30;;;;;;5051745;28;20119;-83
2023/06/30 06:32:57;;;;;;;8.52;6.55;;;21.60;74.60;;;;;;5051901;28;20019;-82
2023/06/30 06:35:23;;;;;;;11.15;6.38;;;21.80;74.30;;;;;;5051747;28;20507;-82
2023/06/30 06:37:48;;;;;;;8.57;6.15;;;21.90;72.10;;;;;;5053273;28;20530;-82
2023/06/30 06:40:14;;;;;;;8.07;5.55;;;21.90;73.50;;;;;;5053081;28;20127;-82
2023/06/30 06:42:39;;;;;;;9.50;6.70;;;21.90;72.10;;;;;;5051812;28;20039;-82
2023/06/30 06:45:05;;;;;;;5.97;5.45;;;22.10;72.90;;;;;;5052881;28;20037;-82
2023/06/30 06:48:09;;;;;;;6.97;5.03;;;22.10;70.10;;;;;;5052864;28;20021;-82
2023/06/30 06:50:34;;;;;;;5.57;5.05;;;22.20;70.70;;;;;;5052793;28;20082;-82
2023/06/30 06:53:00;;;;;;;5.20;4.70;;;22.30;69.00;;;;;;5052931;28;20025;-82
2023/06/30 06:55:25;;;;;;;8.90;5.22;;;22.30;69.50;;;;;;5051377;28;20108;-82
2023/06/30 06:57:52;;;;;;;5.72;5.05;;;22.40;68.30;;;;;;5052618;28;20046;-82
2023/06/30 07:00:18;;;;;;;5.43;4.40;;;22.40;67.70;;;;;;5052610;28;20571;-82
2023/06/30 07:02:44;;;;;;;4.75;4.30;;;22.50;66.70;;;;;;5051350;28;20026;-82
2023/06/30 07:05:10;;;;;;;8.18;4.32;;;22.60;67.00;;;;;;5052695;28;20029;-82
2023/06/30 07:07:36;;;;;;;6.03;4.75;;;22.80;66.70;;;;;;5052573;28;20021;-82
2023/06/30 07:10:02;;;;;;;7.47;5.05;;;22.80;65.60;;;;;;5052510;28;20108;-82
2023/06/30 07:12:27;;;;;;;5.05;4.65;;;22.90;66.10;;;;;;5052299;28;20029;-82
2023/06/30 07:14:53;;;;;;;5.75;4.97;;;23.00;66.00;;;;;;5051104;28;20505;-82
2023/06/30 07:17:18;;;;;;;6.65;4.70;;;23.10;66.00;;;;;;5051336;28;20489;-82
2023/06/30 07:19:44;;;;;;;7.65;4.82;;;23.10;65.30;;;;;;5052402;28;20027;-82
2023/06/30 07:22:10;;;;;;;8.23;4.85;;;23.30;65.40;;;;;;5052436;28;20021;-82
2023/06/30 07:24:35;;;;;;;6.63;4.90;;;23.40;65.70;;;;;;5049646;28;20025;-82
2023/06/30 07:27:01;;;;;;;5.40;4.38;;;23.50;64.70;;;;;;5052291;28;20097;-82
2023/06/30 07:29:26;;;;;;;7.47;4.35;;;23.60;63.60;;;;;;5051056;28;20029;-82
2023/06/30 07:31:53;;;;;;;6.40;4.85;;;23.70;63.70;;;;;;5052194;28;20025;-82
2023/06/30 07:34:19;;;;;;;6.50;4.57;;;23.80;63.70;;;;;;5050876;28;20021;-82
2023/06/30 07:36:46;;;;;;;6.35;4.57;;;23.90;64.80;;;;;;5050759;28;20035;-82
2023/06/30 07:39:11;;;;;;;5.97;4.75;;;24.10;63.70;;;;;;5050784;28;20029;-82
2023/06/30 07:41:37;;;;;;;6.68;5.65;;;24.20;63.40;;;;;;5050738;28;20041;-82
2023/06/30 07:44:03;;;;;;;7.05;5.45;;;24.10;62.00;;;;;;5051953;28;20411;-82
2023/06/30 07:46:30;;;;;;;5.85;4.85;;;24.10;62.50;;;;;;5050639;28;20040;-82
2023/06/30 07:48:56;;;;;;;5.03;4.55;;;24.30;61.40;;;;;;5050623;28;20442;-82
2023/06/30 07:51:21;;;;;;;7.18;4.68;;;24.40;63.00;;;;;;5050510;28;20107;-82
2023/06/30 07:53:47;;;;;;;6.25;5.05;;;24.60;63.90;;;;;;5051784;28;20382;-82
2023/06/30 07:56:12;;;;;;;6.05;4.43;;;24.70;62.60;;;;;;5049928;28;20033;-82
2023/06/30 07:58:38;;;;;;;7.35;5.03;;;24.80;61.20;;;;;;5050825;28;20481;-82
2023/06/30 08:01:04;;;;;;;7.45;5.93;;;24.90;59.60;;;;;;5050305;28;20470;-82
2023/06/30 08:03:30;;;;;;;8.27;5.60;;;24.90;59.50;;;;;;5051560;28;20021;-82
2023/06/30 08:05:57;;;;;;;11.32;5.75;;;24.80;60.80;;;;;;5051651;28;20482;-82
2023/06/30 08:08:23;;;;;;;9.02;5.72;;;24.80;60.60;;;;;;5050324;28;20025;-82
2023/06/30 08:10:49;;;;;;;8.05;5.70;;;24.90;59.70;;;;;;5051603;28;20032;-82
2023/06/30 08:13:15;;;;;;;7.60;6.20;;;25.00;61.00;;;;;;5051477;28;20029;-82
2023/06/30 08:15:41;;;;;;;8.75;6.35;;;25.20;60.90;;;;;;5050100;28;20025;-82
2023/06/30 08:18:07;;;;;;;10.73;5.93;;;25.30;60.30;;;;;;5051461;28;20033;-82
2023/06/30 08:20:33;;;;;;;8.07;5.55;;;25.30;58.60;;;;;;5051270;28;20021;-82
2023/06/30 08:22:59;;;;;;;6.60;4.75;;;25.40;58.20;;;;;;5051384;28;20501;-82
2023/06/30 08:25:25;;;;;;;7.05;5.22;;;25.50;57.90;;;;;;5051294;28;20037;-82
2023/06/30 08:27:51;;;;;;;8.02;5.78;;;25.80;58.00;;;;;;5049833;28;20363;-82
2023/06/30 08:30:17;;;;;;;13.25;6.85;;;25.90;58.60;;;;;;5050063;28;20460;-81
2023/06/30 08:32:43;;;;;;;14.02;7.15;;;26.10;56.50;;;;;;5051279;28;20113;-82
2023/06/30 08:35:08;;;;;;;7.57;6.28;;;26.00;55.80;;;;;;5050695;28;20025;-82
2023/06/30 08:37:34;;;;;;;7.15;5.78;;;26.20;57.00;;;;;;5051192;28;20440;-82
2023/06/30 08:40:04;;;;;;;8.25;6.10;;;26.10;54.60;;;;;;5049552;28;20025;-82
2023/06/30 08:42:31;;;;;;;8.68;5.05;;;26.00;55.30;;;;;;5049757;28;20036;-82
2023/06/30 08:45:02;;;;;;;9.88;6.07;;;25.90;54.50;;;;;;5049691;28;20505;-82
2023/06/30 08:47:31;;;;;;;5.93;4.60;;;25.80;55.00;;;;;;5050968;28;20033;-82
2023/06/30 08:49:58;;;;;;;6.80;4.90;;;25.90;54.50;;;;;;5050878;28;20044;-82
2023/06/30 08:52:23;;;;;;;7.05;4.55;;;25.90;54.30;;;;;;5049638;28;20032;-82
2023/06/30 08:54:49;;;;;;;5.53;4.20;;;26.10;54.30;;;;;;5050931;28;20017;-82
2023/06/30 08:57:16;;;;;;;6.47;4.15;;;26.00;53.80;;;;;;5049606;28;20028;-81
2023/06/30 08:59:42;;;;;;;5.47;4.07;;;26.00;54.40;;;;;;5050818;28;20046;-81
2023/06/30 09:02:09;;;;;;;6.28;4.60;;;26.10;53.00;;;;;;5049481;28;20017;-82
2023/06/30 09:04:36;;;;;;;8.38;4.63;;;25.90;51.60;;;;;;5049324;28;20116;-82
2023/06/30 09:07:05;;;;;;;4.95;3.83;;;25.90;53.50;;;;;;5049435;28;20020;-81
2023/06/30 09:09:41;;;;;;;6.22;3.63;;;25.90;53.50;;;;;;5050628;28;20378;-82
2023/06/30 09:12:09;;;;;;;5.80;3.75;;;25.90;52.60;;;;;;5050694;28;20077;-82
2023/06/30 09:14:38;;;;;;;7.40;4.35;;;26.00;54.20;;;;;;5050667;28;20021;-81
2023/06/30 09:17:04;;;;;;;7.00;4.53;;;26.10;54.20;;;;;;5050507;28;20048;-81
2023/06/30 09:19:30;;;;;;;5.72;4.63;;;26.00;53.40;;;;;;5050430;28;20029;-81
2023/06/30 09:21:59;;;;;;;7.13;4.45;;;26.10;54.00;;;;;;5049270;28;20124;-81
2023/06/30 09:24:25;;;;;;;7.18;4.43;;;26.10;53.00;;;;;;5049214;28;20486;-81
2023/06/30 09:26:52;;;;;;;9.50;4.43;;;26.20;53.40;;;;;;5049056;28;20491;-82
2023/06/30 09:29:22;;;;;;;4.40;3.25;;;26.00;54.20;;;;;;5049303;28;20029;-81
2023/06/30 09:31:51;;;;;;;8.18;4.00;;;26.30;54.30;;;;;;5050341;28;20021;-81
2023/06/30 09:34:19;;;;;;;6.78;4.00;;;26.30;53.60;;;;;;5050333;28;20035;-81
2023/06/30 09:36:49;;;;;;;8.48;4.65;;;26.20;54.20;;;;;;5049083;28;20028;-81
2023/06/30 09:39:15;;;;;;;7.55;4.20;;;26.30;54.40;;;;;;5050318;28;20053;-81
2023/06/30 09:41:45;;;;;;;4.60;3.55;;;26.20;52.70;;;;;;5050339;28;20482;-81
2023/06/30 09:44:12;;;;;;;6.45;4.40;;;26.10;52.90;;;;;;5048900;28;20025;-81
2023/06/30 09:46:45;;;;;;;6.63;3.83;;;26.20;53.10;;;;;;5049570;28;20386;-81
2023/06/30 09:49:30;;;;;;;5.55;3.05;;;26.20;52.70;;;;;;5053780;28;20466;-81
2023/06/30 09:51:57;;;;;;;6.15;3.10;;;26.30;51.20;;;;;;5053827;28;20021;-82
2023/06/30 09:54:24;;;;;;;3.08;2.38;;;26.40;52.20;;;;;;5052385;28;20025;-81
2023/06/30 09:57:05;;;;;;;2.97;2.47;;;26.40;50.30;;;;;;5053533;28;20052;-81
2023/06/30 09:59:31;;;;;;;5.15;2.28;;;26.40;48.40;;;;;;5052403;28;20025;-82
2023/06/30 10:01:58;;;;;;;5.97;3.00;;;26.50;48.80;;;;;;5053514;28;20060;-81
2023/06/30 10:04:25;;;;;;;8.32;3.55;;;26.60;49.20;;;;;;5053378;28;20025;-82
2023/06/30 10:06:51;;;;;;;7.05;3.78;;;26.50;48.30;;;;;;5053385;28;20138;-81
2023/06/30 10:09:20;;;;;;;6.13;2.60;;;26.60;49.10;;;;;;5053389;28;20032;-81
2023/06/30 10:11:52;;;;;;;4.97;2.90;;;26.50;48.50;;;;;;5053449;28;20473;-81
2023/06/30 10:14:20;;;;;;;5.67;2.50;;;26.40;47.80;;;;;;5052081;28;20014;-81
2023/06/30 10:16:47;;;;;;;4.80;2.67;;;26.60;47.70;;;;;;5051880;28;20409;-81
2023/06/30 10:19:14;;;;;;;2.47;2.28;;;26.80;48.20;;;;;;5053281;28;20382;-81
2023/06/30 10:21:41;;;;;;;4.65;3.03;;;26.90;49.40;;;;;;5051941;28;20017;-82
2023/06/30 10:24:08;;;;;;;7.50;2.90;;;27.10;48.90;;;;;;5053181;28;20104;-81
2023/06/30 10:26:36;;;;;;;3.28;2.80;;;27.10;48.80;;;;;;5051798;28;20398;-81
2023/06/30 10:29:02;;;;;;;4.20;2.85;;;27.10;48.90;;;;;;5053150;28;20542;-81
2023/06/30 10:31:28;;;;;;;4.60;2.38;;;27.20;49.00;;;;;;5051728;28;20021;-81
2023/06/30 10:33:54;;;;;;;4.22;2.30;;;27.30;49.90;;;;;;5051790;28;20021;-81
2023/06/30 10:36:20;;;;;;;3.30;2.78;;;27.50;48.00;;;;;;5051670;28;20096;-81
2023/06/30 10:38:47;;;;;;;3.33;2.40;;;27.60;47.30;;;;;;5052994;28;20056;-81
2023/06/30 10:41:19;;;;;;;3.58;2.38;;;27.50;46.90;;;;;;5051555;28;20049;-81
2023/06/30 10:44:00;;;;;;;3.17;2.42;;;27.60;46.50;;;;;;5051618;28;20025;-82
2023/06/30 10:46:51;;;;;;;7.43;2.70;;;27.70;48.20;;;;;;5052806;28;20036;-81
2023/06/30 10:49:31;;;;;;;2.70;2.47;;;27.90;49.50;;;;;;5051758;28;20112;-82
2023/06/30 10:51:59;;;;;;;4.85;2.88;;;27.90;46.80;;;;;;5052934;28;20044;-82
2023/06/30 10:54:27;;;;;;;6.13;3.00;;;27.90;47.00;;;;;;5051211;28;20048;-81
2023/06/30 10:57:10;;;;;;;7.05;3.30;;;27.90;47.60;;;;;;5052817;28;20056;-81
2023/06/30 10:59:43;;;;;;;3.70;2.65;;;28.10;47.40;;;;;;5052744;28;20494;-81
2023/06/30 11:02:11;;;;;;;7.78;3.50;;;28.20;48.50;;;;;;5052686;28;20025;-81
2023/06/30 11:04:38;;;;;;;13.35;4.22;;;27.90;45.40;;;;;;5051219;28;20085;-81
2023/06/30 11:07:06;;;;;;;4.28;3.45;;;28.00;46.50;;;;;;5051297;28;20028;-81
2023/06/30 11:09:47;;;;;;;13.27;3.40;;;27.90;47.30;;;;;;5051205;28;20025;-81
2023/06/30 11:12:20;;;;;;;5.35;3.30;;;27.90;47.80;;;;;;5051085;28;20390;-81
2023/06/30 11:14:59;;;;;;;7.47;3.70;;;27.80;47.90;;;;;;5051121;28;20024;-81
2023/06/30 11:17:26;;;;;;;7.93;3.40;;;27.80;48.60;;;;;;5051132;28;20501;-81
2023/06/30 11:20:01;;;;;;;3.67;3.38;;;27.70;48.10;;;;;;5051131;28;20482;-81
2023/06/30 11:22:30;;;;;;;3.67;3.38;;;27.80;48.50;;;;;;5052405;28;20082;-81
2023/06/30 11:24:56;;;;;;;11.75;4.40;;;27.60;47.50;;;;;;5052366;28;20041;-81
2023/06/30 11:27:21;;;;;;;8.07;4.07;;;27.50;48.10;;;;;;5051035;28;20078;-81
2023/06/30 11:29:53;;;;;;;9.73;4.18;;;27.60;48.80;;;;;;5052378;28;20025;-81
2023/06/30 11:32:25;;;;;;;10.25;3.97;;;27.60;48.40;;;;;;5052246;28;20367;-81
2023/06/30 11:34:51;;;;;;;7.18;3.90;;;27.30;48.50;;;;;;5052207;28;20100;-83
2023/06/30 11:37:17;;;;;;;7.38;3.88;;;27.30;49.20;;;;;;5050896;28;20120;-82
2023/06/30 11:39:50;;;;;;;6.20;3.85;;;27.30;49.60;;;;;;5052009;28;20535;-81
2023/06/30 11:42:16;;;;;;;6.38;3.70;;;27.40;50.30;;;;;;5050873;28;20037;-81
2023/06/30 11:44:42;;;;;;;2.65;2.45;;;27.40;50.80;;;;;;5052114;28;20362;-81
2023/06/30 11:47:07;;;;;;;3.15;2.85;;;27.60;48.60;;;;;;5051952;28;20029;-81
2023/06/30 11:49:36;;;;;;;4.60;3.30;;;27.40;48.20;;;;;;5050768;28;20017;-81
2023/06/30 11:52:04;;;;;;;5.95;3.20;;;27.40;48.10;;;;;;5051946;28;20474;-81
2023/06/30 11:54:31;;;;;;;2.83;2.50;;;27.50;48.10;;;;;;5051776;28;20092;-81
2023/06/30 11:57:00;;;;;;;5.93;2.97;;;27.30;47.70;;;;;;5050408;28;20024;-81
2023/06/30 11:59:27;;;;;;;3.33;3.03;;;27.50;49.00;;;;;;5051856;28;20543;-81
2023/06/30 12:01:53;;;;;;;6.15;2.90;;;27.50;46.60;;;;;;5050420;28;20028;-81
2023/06/30 12:04:18;;;;;;;4.78;2.78;;;27.60;46.90;;;;;;5051807;28;20031;-81
2023/06/30 12:06:47;;;;;;;5.25;2.35;;;27.60;46.20;;;;;;5050364;28;20025;-81
2023/06/30 12:09:13;;;;;;;2.92;2.28;;;27.70;45.60;;;;;;5050786;28;20066;-81
2023/06/30 12:11:45;;;;;;;3.33;2.55;;;27.80;45.40;;;;;;5050314;28;20029;-81
2023/06/30 12:14:13;;;;;;;;;;;27.90;46.50;;;;;;5050611;28;20541;-82
2023/06/30 12:16:45;;;;;;;3.13;2.83;;;27.70;46.30;;;;;;5051428;28;19908;-81
2023/06/30 12:19:12;;;;;;;4.57;3.03;;;27.80;47.20;;;;;;5050387;28;20029;-81
2023/06/30 12:21:50;;;;;;;3.65;2.83;;;27.90;47.20;;;;;;5051346;28;20017;-81
2023/06/30 12:24:20;;;;;;;3.70;3.00;;;28.00;47.70;;;;;;5049964;28;20057;-82
2023/06/30 12:26:48;;;;;;;4.22;2.42;;;28.10;48.60;;;;;;5049854;28;20508;-81
2023/06/30 12:29:17;;;;;;;5.38;3.03;;;28.10;46.40;;;;;;5050091;28;20029;-81
2023/06/30 12:31:45;;;;;;;6.90;3.35;;;28.20;46.70;;;;;;5051457;28;20025;-82
2023/06/30 12:34:13;;;;;;;6.20;3.10;;;28.20;47.10;;;;;;5050067;28;20014;-81
2023/06/30 12:36:40;;;;;;;3.55;2.90;;;28.30;46.50;;;;;;5051232;28;20516;-81
2023/06/30 12:39:05;;;;;;;4.93;2.97;;;28.40;47.90;;;;;;5051161;28;20427;-81
2023/06/30 12:41:31;;;;;;;4.15;3.22;;;28.20;46.60;;;;;;5049742;28;20137;-81